sensor_id;sensor_type;location;lat;lon;timestamp;P1;durP1;ratioP1;P2;durP2;ratioP2
17648;SDS011;8943;51.110;-4.158;2022-08-18T00:01:07;7.77;;;5.97;;
17648;SDS011;8943;51.110;-4.158;2022-08-18T00:03:39;8.77;;;6.13;;
17648;SDS011;8943;51.110;-4.158;2022-08-18T00:06:22;6.63;;;5.80;;
17648;SDS011;8943;51.110;-4.158;2022-08-18T00:08:55;7.03;;;5.77;;
17648;SDS011;8943;51.110;-4.158;2022-08-18T00:11:25;8.20;;;6.13;;
17648;SDS011;8943;51.110;-4.158;2022-08-18T00:14:07;8.50;;;5.93;;
17648;SDS011;8943;51.110;-4.158;2022-08-18T00:16:46;8.13;;;5.50;;
17648;SDS011;8943;51.110;-4.158;2022-08-18T00:19:15;6.73;;;5.03;;
17648;SDS011;8943;51.110;-4.158;2022-08-18T00:21:43;8.97;;;5.73;;
17648;SDS011;8943;51.110;-4.158;2022-08-18T00:24:13;11.67;;;5.80;;
17648;SDS011;8943;51.110;-4.158;2022-08-18T00:26:41;7.73;;;6.20;;
17648;SDS011;8943;51.110;-4.158;2022-08-18T00:29:13;8.77;;;6.20;;
17648;SDS011;8943;51.110;-4.158;2022-08-18T00:31:42;8.00;;;6.37;;
17648;SDS011;8943;51.110;-4.158;2022-08-18T00:34:10;8.57;;;6.73;;
17648;SDS011;8943;51.110;-4.158;2022-08-18T00:36:38;9.07;;;6.70;;
17648;SDS011;8943;51.110;-4.158;2022-08-18T00:39:06;9.60;;;6.87;;
17648;SDS011;8943;51.110;-4.158;2022-08-18T00:41:36;9.57;;;6.70;;
17648;SDS011;8943;51.110;-4.158;2022-08-18T00:44:04;11.43;;;6.90;;
17648;SDS011;8943;51.110;-4.158;2022-08-18T00:46:34;8.97;;;6.80;;
17648;SDS011;8943;51.110;-4.158;2022-08-18T00:49:03;8.70;;;6.60;;
17648;SDS011;8943;51.110;-4.158;2022-08-18T00:51:34;9.80;;;6.93;;
17648;SDS011;8943;51.110;-4.158;2022-08-18T00:54:11;10.77;;;6.53;;
17648;SDS011;8943;51.110;-4.158;2022-08-18T00:56:45;9.07;;;6.67;;
17648;SDS011;8943;51.110;-4.158;2022-08-18T00:59:17;9.23;;;7.37;;
17648;SDS011;8943;51.110;-4.158;2022-08-18T01:01:51;12.20;;;8.40;;
17648;SDS011;8943;51.110;-4.158;2022-08-18T01:04:21;17.10;;;9.67;;
17648;SDS011;8943;51.110;-4.158;2022-08-18T01:06:55;26.77;;;9.37;;
17648;SDS011;8943;51.110;-4.158;2022-08-18T01:09:28;9.67;;;7.97;;
17648;SDS011;8943;51.110;-4.158;2022-08-18T01:11:58;12.63;;;6.83;;
17648;SDS011;8943;51.110;-4.158;2022-08-18T01:14:46;10.57;;;7.67;;
17648;SDS011;8943;51.110;-4.158;2022-08-18T01:17:14;11.60;;;7.57;;
17648;SDS011;8943;51.110;-4.158;2022-08-18T01:20:00;8.07;;;6.27;;
17648;SDS011;8943;51.110;-4.158;2022-08-18T01:22:50;9.50;;;7.23;;
17648;SDS011;8943;51.110;-4.158;2022-08-18T01:25:26;9.63;;;8.23;;
17648;SDS011;8943;51.110;-4.158;2022-08-18T01:28:12;9.80;;;6.50;;
17648;SDS011;8943;51.110;-4.158;2022-08-18T01:30:44;11.27;;;7.80;;
17648;SDS011;8943;51.110;-4.158;2022-08-18T01:33:15;11.80;;;7.30;;
17648;SDS011;8943;51.110;-4.158;2022-08-18T01:35:44;8.50;;;6.33;;
17648;SDS011;8943;51.110;-4.158;2022-08-18T01:38:17;7.67;;;5.77;;
17648;SDS011;8943;51.110;-4.158;2022-08-18T01:40:47;11.37;;;7.03;;
17648;SDS011;8943;51.110;-4.158;2022-08-18T01:43:37;7.53;;;6.00;;
17648;SDS011;8943;51.110;-4.158;2022-08-18T01:46:06;10.43;;;7.67;;
17648;SDS011;8943;51.110;-4.158;2022-08-18T01:48:36;11.23;;;7.23;;
17648;SDS011;8943;51.110;-4.158;2022-08-18T01:51:05;8.97;;;7.30;;
17648;SDS011;8943;51.110;-4.158;2022-08-18T01:53:36;7.97;;;6.87;;
17648;SDS011;8943;51.110;-4.158;2022-08-18T01:56:05;12.23;;;7.40;;
17648;SDS011;8943;51.110;-4.158;2022-08-18T01:58:34;14.10;;;8.13;;
17648;SDS011;8943;51.110;-4.158;2022-08-18T02:01:03;11.90;;;7.13;;
17648;SDS011;8943;51.110;-4.158;2022-08-18T02:03:33;7.73;;;5.80;;
17648;SDS011;8943;51.110;-4.158;2022-08-18T02:06:04;9.87;;;6.97;;
17648;SDS011;8943;51.110;-4.158;2022-08-18T02:08:41;11.27;;;7.27;;
17648;SDS011;8943;51.110;-4.158;2022-08-18T02:11:15;7.30;;;6.13;;
17648;SDS011;8943;51.110;-4.158;2022-08-18T02:13:43;7.53;;;6.70;;
17648;SDS011;8943;51.110;-4.158;2022-08-18T02:16:11;18.57;;;8.50;;
17648;SDS011;8943;51.110;-4.158;2022-08-18T02:18:40;8.50;;;7.03;;
17648;SDS011;8943;51.110;-4.158;2022-08-18T02:21:15;8.97;;;6.47;;
17648;SDS011;8943;51.110;-4.158;2022-08-18T02:23:47;8.27;;;6.17;;
17648;SDS011;8943;51.110;-4.158;2022-08-18T02:26:19;8.90;;;6.30;;
17648;SDS011;8943;51.110;-4.158;2022-08-18T02:28:48;9.50;;;6.43;;
17648;SDS011;8943;51.110;-4.158;2022-08-18T02:31:17;8.30;;;6.70;;
17648;SDS011;8943;51.110;-4.158;2022-08-18T02:33:48;21.00;;;8.23;;
17648;SDS011;8943;51.110;-4.158;2022-08-18T02:36:18;11.50;;;6.33;;
17648;SDS011;8943;51.110;-4.158;2022-08-18T02:38:52;8.67;;;6.33;;
17648;SDS011;8943;51.110;-4.158;2022-08-18T02:41:25;8.70;;;6.40;;
17648;SDS011;8943;51.110;-4.158;2022-08-18T02:43:55;19.37;;;8.73;;
17648;SDS011;8943;51.110;-4.158;2022-08-18T02:46:24;9.63;;;7.27;;
17648;SDS011;8943;51.110;-4.158;2022-08-18T02:48:55;7.57;;;6.33;;
17648;SDS011;8943;51.110;-4.158;2022-08-18T02:51:23;21.93;;;7.97;;
17648;SDS011;8943;51.110;-4.158;2022-08-18T02:53:53;16.60;;;8.93;;
17648;SDS011;8943;51.110;-4.158;2022-08-18T02:56:25;9.63;;;6.60;;
17648;SDS011;8943;51.110;-4.158;2022-08-18T02:59:08;8.03;;;6.60;;
17648;SDS011;8943;51.110;-4.158;2022-08-18T03:01:39;11.93;;;7.93;;
17648;SDS011;8943;51.110;-4.158;2022-08-18T03:04:10;11.57;;;7.10;;
17648;SDS011;8943;51.110;-4.158;2022-08-18T03:06:55;9.23;;;6.73;;
17648;SDS011;8943;51.110;-4.158;2022-08-18T03:09:25;9.77;;;6.70;;
17648;SDS011;8943;51.110;-4.158;2022-08-18T03:11:54;28.30;;;8.50;;
17648;SDS011;8943;51.110;-4.158;2022-08-18T03:14:23;8.30;;;6.47;;
17648;SDS011;8943;51.110;-4.158;2022-08-18T03:16:52;8.73;;;6.93;;
17648;SDS011;8943;51.110;-4.158;2022-08-18T03:19:21;9.93;;;6.77;;
17648;SDS011;8943;51.110;-4.158;2022-08-18T03:21:50;59.47;;;11.77;;
17648;SDS011;8943;51.110;-4.158;2022-08-18T03:24:18;10.23;;;6.70;;
17648;SDS011;8943;51.110;-4.158;2022-08-18T03:26:51;7.97;;;6.50;;
17648;SDS011;8943;51.110;-4.158;2022-08-18T03:29:21;8.83;;;6.77;;
17648;SDS011;8943;51.110;-4.158;2022-08-18T03:31:56;38.07;;;10.17;;
17648;SDS011;8943;51.110;-4.158;2022-08-18T03:34:24;11.20;;;6.93;;
17648;SDS011;8943;51.110;-4.158;2022-08-18T03:36:52;10.20;;;7.60;;
17648;SDS011;8943;51.110;-4.158;2022-08-18T03:39:21;8.17;;;7.10;;
17648;SDS011;8943;51.110;-4.158;2022-08-18T03:41:52;7.97;;;6.33;;
17648;SDS011;8943;51.110;-4.158;2022-08-18T03:44:26;8.33;;;6.60;;
17648;SDS011;8943;51.110;-4.158;2022-08-18T03:46:58;7.47;;;6.43;;
17648;SDS011;8943;51.110;-4.158;2022-08-18T03:49:28;9.13;;;6.70;;
17648;SDS011;8943;51.110;-4.158;2022-08-18T03:51:57;7.77;;;6.97;;
17648;SDS011;8943;51.110;-4.158;2022-08-18T03:54:27;8.23;;;7.03;;
17648;SDS011;8943;51.110;-4.158;2022-08-18T03:56:59;9.47;;;7.43;;
17648;SDS011;8943;51.110;-4.158;2022-08-18T03:59:27;9.23;;;6.53;;
17648;SDS011;8943;51.110;-4.158;2022-08-18T04:01:57;11.00;;;7.23;;
17648;SDS011;8943;51.110;-4.158;2022-08-18T04:04:26;7.70;;;6.30;;
17648;SDS011;8943;51.110;-4.158;2022-08-18T04:06:55;9.60;;;6.80;;
17648;SDS011;8943;51.110;-4.158;2022-08-18T04:09:26;8.20;;;6.37;;
17648;SDS011;8943;51.110;-4.158;2022-08-18T04:11:56;9.60;;;7.07;;
17648;SDS011;8943;51.110;-4.158;2022-08-18T04:14:27;10.87;;;7.20;;
17648;SDS011;8943;51.110;-4.158;2022-08-18T04:16:56;7.53;;;6.73;;
17648;SDS011;8943;51.110;-4.158;2022-08-18T04:19:24;8.70;;;7.13;;
17648;SDS011;8943;51.110;-4.158;2022-08-18T04:21:54;9.77;;;7.23;;
17648;SDS011;8943;51.110;-4.158;2022-08-18T04:24:23;8.47;;;7.53;;
17648;SDS011;8943;51.110;-4.158;2022-08-18T04:26:57;9.73;;;6.73;;
17648;SDS011;8943;51.110;-4.158;2022-08-18T04:29:28;10.63;;;7.20;;
17648;SDS011;8943;51.110;-4.158;2022-08-18T04:31:58;10.63;;;7.20;;
17648;SDS011;8943;51.110;-4.158;2022-08-18T04:34:28;8.37;;;6.53;;
17648;SDS011;8943;51.110;-4.158;2022-08-18T04:36:56;9.43;;;6.90;;
17648;SDS011;8943;51.110;-4.158;2022-08-18T04:39:24;8.90;;;6.37;;
17648;SDS011;8943;51.110;-4.158;2022-08-18T04:41:53;8.03;;;6.23;;
17648;SDS011;8943;51.110;-4.158;2022-08-18T04:44:22;9.00;;;7.67;;
17648;SDS011;8943;51.110;-4.158;2022-08-18T04:46:52;8.20;;;6.93;;
17648;SDS011;8943;51.110;-4.158;2022-08-18T04:49:24;9.47;;;7.10;;
17648;SDS011;8943;51.110;-4.158;2022-08-18T04:51:53;9.23;;;7.53;;
17648;SDS011;8943;51.110;-4.158;2022-08-18T04:54:59;10.27;;;7.33;;
17648;SDS011;8943;51.110;-4.158;2022-08-18T04:57:29;8.97;;;7.07;;
17648;SDS011;8943;51.110;-4.158;2022-08-18T05:00:06;8.53;;;6.37;;
17648;SDS011;8943;51.110;-4.158;2022-08-18T05:02:40;6.40;;;5.67;;
17648;SDS011;8943;51.110;-4.158;2022-08-18T05:05:09;8.37;;;6.50;;
17648;SDS011;8943;51.110;-4.158;2022-08-18T05:07:41;8.03;;;5.93;;
17648;SDS011;8943;51.110;-4.158;2022-08-18T05:10:12;8.33;;;5.80;;
17648;SDS011;8943;51.110;-4.158;2022-08-18T05:12:45;10.23;;;7.10;;
17648;SDS011;8943;51.110;-4.158;2022-08-18T05:15:14;10.17;;;6.63;;
17648;SDS011;8943;51.110;-4.158;2022-08-18T05:17:44;9.00;;;6.13;;
17648;SDS011;8943;51.110;-4.158;2022-08-18T05:20:16;13.00;;;7.00;;
17648;SDS011;8943;51.110;-4.158;2022-08-18T05:22:44;8.93;;;7.30;;
17648;SDS011;8943;51.110;-4.158;2022-08-18T05:25:13;7.40;;;6.60;;
17648;SDS011;8943;51.110;-4.158;2022-08-18T05:27:41;7.67;;;6.27;;
17648;SDS011;8943;51.110;-4.158;2022-08-18T05:30:10;8.80;;;6.77;;
17648;SDS011;8943;51.110;-4.158;2022-08-18T05:32:41;9.27;;;6.73;;
17648;SDS011;8943;51.110;-4.158;2022-08-18T05:35:20;11.50;;;6.90;;
17648;SDS011;8943;51.110;-4.158;2022-08-18T05:38:01;9.73;;;8.00;;
17648;SDS011;8943;51.110;-4.158;2022-08-18T05:40:42;10.03;;;7.43;;
17648;SDS011;8943;51.110;-4.158;2022-08-18T05:43:12;9.47;;;6.93;;
17648;SDS011;8943;51.110;-4.158;2022-08-18T05:45:41;10.57;;;7.47;;
17648;SDS011;8943;51.110;-4.158;2022-08-18T05:48:10;9.17;;;6.93;;
17648;SDS011;8943;51.110;-4.158;2022-08-18T05:50:39;7.63;;;6.90;;
17648;SDS011;8943;51.110;-4.158;2022-08-18T05:53:08;11.33;;;7.87;;
17648;SDS011;8943;51.110;-4.158;2022-08-18T05:55:42;10.97;;;8.13;;
17648;SDS011;8943;51.110;-4.158;2022-08-18T05:58:34;9.13;;;8.20;;
17648;SDS011;8943;51.110;-4.158;2022-08-18T06:01:06;15.70;;;9.37;;
17648;SDS011;8943;51.110;-4.158;2022-08-18T06:03:42;13.67;;;9.20;;
17648;SDS011;8943;51.110;-4.158;2022-08-18T06:06:17;12.97;;;9.10;;
17648;SDS011;8943;51.110;-4.158;2022-08-18T06:08:51;10.33;;;6.60;;
17648;SDS011;8943;51.110;-4.158;2022-08-18T06:11:25;9.47;;;8.07;;
17648;SDS011;8943;51.110;-4.158;2022-08-18T06:13:53;22.97;;;10.17;;
17648;SDS011;8943;51.110;-4.158;2022-08-18T06:16:29;15.20;;;7.97;;
17648;SDS011;8943;51.110;-4.158;2022-08-18T06:19:21;11.43;;;7.23;;
17648;SDS011;8943;51.110;-4.158;2022-08-18T06:22:09;7.93;;;6.47;;
17648;SDS011;8943;51.110;-4.158;2022-08-18T06:24:45;6.93;;;6.23;;
17648;SDS011;8943;51.110;-4.158;2022-08-18T06:27:23;7.93;;;6.67;;
17648;SDS011;8943;51.110;-4.158;2022-08-18T06:30:06;12.73;;;6.90;;
17648;SDS011;8943;51.110;-4.158;2022-08-18T06:32:44;7.63;;;6.70;;
17648;SDS011;8943;51.110;-4.158;2022-08-18T06:35:25;9.63;;;7.10;;
17648;SDS011;8943;51.110;-4.158;2022-08-18T06:38:03;8.23;;;6.90;;
17648;SDS011;8943;51.110;-4.158;2022-08-18T06:41:00;11.07;;;7.63;;
17648;SDS011;8943;51.110;-4.158;2022-08-18T06:43:30;12.20;;;8.30;;
17648;SDS011;8943;51.110;-4.158;2022-08-18T06:46:01;7.30;;;6.57;;
17648;SDS011;8943;51.110;-4.158;2022-08-18T06:48:36;9.33;;;7.07;;
17648;SDS011;8943;51.110;-4.158;2022-08-18T06:51:11;10.03;;;7.70;;
17648;SDS011;8943;51.110;-4.158;2022-08-18T06:53:49;12.30;;;8.20;;
17648;SDS011;8943;51.110;-4.158;2022-08-18T06:56:24;8.53;;;7.60;;
17648;SDS011;8943;51.110;-4.158;2022-08-18T06:59:00;11.37;;;8.20;;
17648;SDS011;8943;51.110;-4.158;2022-08-18T07:01:49;11.03;;;8.50;;
17648;SDS011;8943;51.110;-4.158;2022-08-18T07:04:35;11.27;;;8.70;;
17648;SDS011;8943;51.110;-4.158;2022-08-18T07:07:19;12.60;;;8.30;;
17648;SDS011;8943;51.110;-4.158;2022-08-18T07:13:05;10.50;;;8.17;;
17648;SDS011;8943;51.110;-4.158;2022-08-18T07:15:48;11.27;;;8.20;;
17648;SDS011;8943;51.110;-4.158;2022-08-18T07:18:21;12.87;;;8.47;;
17648;SDS011;8943;51.110;-4.158;2022-08-18T07:20:53;12.23;;;8.30;;
17648;SDS011;8943;51.110;-4.158;2022-08-18T07:23:29;15.00;;;8.63;;
17648;SDS011;8943;51.110;-4.158;2022-08-18T07:26:03;15.10;;;8.40;;
17648;SDS011;8943;51.110;-4.158;2022-08-18T07:28:36;7.97;;;6.13;;
17648;SDS011;8943;51.110;-4.158;2022-08-18T07:33:57;9.87;;;6.17;;
17648;SDS011;8943;51.110;-4.158;2022-08-18T07:36:31;8.33;;;5.80;;
17648;SDS011;8943;51.110;-4.158;2022-08-18T07:39:04;6.03;;;3.87;;
17648;SDS011;8943;51.110;-4.158;2022-08-18T07:41:38;7.67;;;3.83;;
17648;SDS011;8943;51.110;-4.158;2022-08-18T07:44:12;4.83;;;3.23;;
17648;SDS011;8943;51.110;-4.158;2022-08-18T07:46:47;6.93;;;3.07;;
17648;SDS011;8943;51.110;-4.158;2022-08-18T07:49:21;7.23;;;3.80;;
17648;SDS011;8943;51.110;-4.158;2022-08-18T07:51:53;6.40;;;3.77;;
17648;SDS011;8943;51.110;-4.158;2022-08-18T07:54:41;6.57;;;3.40;;
17648;SDS011;8943;51.110;-4.158;2022-08-18T07:57:24;6.80;;;3.90;;
17648;SDS011;8943;51.110;-4.158;2022-08-18T08:00:19;5.63;;;3.17;;
17648;SDS011;8943;51.110;-4.158;2022-08-18T08:03:13;7.37;;;3.00;;
17648;SDS011;8943;51.110;-4.158;2022-08-18T08:05:53;5.47;;;3.33;;
17648;SDS011;8943;51.110;-4.158;2022-08-18T08:08:28;10.93;;;4.33;;
17648;SDS011;8943;51.110;-4.158;2022-08-18T08:11:05;9.93;;;4.00;;
17648;SDS011;8943;51.110;-4.158;2022-08-18T08:13:45;4.83;;;3.27;;
17648;SDS011;8943;51.110;-4.158;2022-08-18T08:16:24;6.33;;;3.63;;
17648;SDS011;8943;51.110;-4.158;2022-08-18T08:19:02;6.30;;;2.97;;
17648;SDS011;8943;51.110;-4.158;2022-08-18T08:21:39;8.20;;;3.67;;
17648;SDS011;8943;51.110;-4.158;2022-08-18T08:24:20;9.93;;;3.73;;
17648;SDS011;8943;51.110;-4.158;2022-08-18T08:26:56;3.73;;;3.13;;
17648;SDS011;8943;51.110;-4.158;2022-08-18T08:29:32;3.20;;;2.90;;
17648;SDS011;8943;51.110;-4.158;2022-08-18T08:32:14;9.83;;;3.60;;
17648;SDS011;8943;51.110;-4.158;2022-08-18T08:34:55;8.30;;;3.50;;
17648;SDS011;8943;51.110;-4.158;2022-08-18T08:37:37;5.63;;;3.70;;
17648;SDS011;8943;51.110;-4.158;2022-08-18T08:40:12;6.70;;;3.97;;
17648;SDS011;8943;51.110;-4.158;2022-08-18T08:42:46;7.17;;;3.87;;
17648;SDS011;8943;51.110;-4.158;2022-08-18T08:45:24;5.37;;;3.17;;
17648;SDS011;8943;51.110;-4.158;2022-08-18T08:47:57;9.47;;;3.70;;
17648;SDS011;8943;51.110;-4.158;2022-08-18T08:50:37;4.57;;;2.87;;
17648;SDS011;8943;51.110;-4.158;2022-08-18T08:53:13;6.70;;;3.20;;
17648;SDS011;8943;51.110;-4.158;2022-08-18T08:55:46;7.53;;;2.90;;
17648;SDS011;8943;51.110;-4.158;2022-08-18T08:58:19;7.57;;;2.97;;
17648;SDS011;8943;51.110;-4.158;2022-08-18T09:00:52;9.13;;;3.60;;
17648;SDS011;8943;51.110;-4.158;2022-08-18T09:03:29;7.97;;;2.70;;
17648;SDS011;8943;51.110;-4.158;2022-08-18T09:06:14;4.97;;;2.30;;
17648;SDS011;8943;51.110;-4.158;2022-08-18T09:08:54;4.80;;;3.10;;
17648;SDS011;8943;51.110;-4.158;2022-08-18T09:11:45;4.17;;;2.50;;
17648;SDS011;8943;51.110;-4.158;2022-08-18T09:14:37;8.10;;;3.10;;
17648;SDS011;8943;51.110;-4.158;2022-08-18T09:17:34;8.47;;;2.73;;
17648;SDS011;8943;51.110;-4.158;2022-08-18T09:23:21;5.77;;;2.80;;
17648;SDS011;8943;51.110;-4.158;2022-08-18T09:25:53;5.50;;;2.60;;
17648;SDS011;8943;51.110;-4.158;2022-08-18T09:28:38;5.63;;;2.60;;
17648;SDS011;8943;51.110;-4.158;2022-08-18T09:31:22;5.30;;;3.00;;
17648;SDS011;8943;51.110;-4.158;2022-08-18T09:37:02;6.73;;;3.27;;
17648;SDS011;8943;51.110;-4.158;2022-08-18T09:39:39;7.03;;;2.10;;
17648;SDS011;8943;51.110;-4.158;2022-08-18T09:42:38;4.10;;;2.57;;
17648;SDS011;8943;51.110;-4.158;2022-08-18T09:45:39;3.73;;;2.10;;
17648;SDS011;8943;51.110;-4.158;2022-08-18T09:48:26;5.07;;;2.50;;
17648;SDS011;8943;51.110;-4.158;2022-08-18T09:54:22;4.23;;;2.07;;
17648;SDS011;8943;51.110;-4.158;2022-08-18T09:56:57;2.47;;;1.80;;
17648;SDS011;8943;51.110;-4.158;2022-08-18T09:59:53;4.37;;;1.90;;
17648;SDS011;8943;51.110;-4.158;2022-08-18T10:08:51;2.37;;;1.50;;
17648;SDS011;8943;51.110;-4.158;2022-08-18T10:18:02;2.43;;;1.60;;
17648;SDS011;8943;51.110;-4.158;2022-08-18T10:20:55;3.00;;;1.97;;
17648;SDS011;8943;51.110;-4.158;2022-08-18T10:24:11;4.73;;;1.40;;
17648;SDS011;8943;51.110;-4.158;2022-08-18T10:27:03;2.40;;;1.50;;
17648;SDS011;8943;51.110;-4.158;2022-08-18T10:29:44;3.77;;;1.50;;
17648;SDS011;8943;51.110;-4.158;2022-08-18T10:38:28;4.60;;;1.43;;
17648;SDS011;8943;51.110;-4.158;2022-08-18T10:41:35;1.63;;;1.17;;
17648;SDS011;8943;51.110;-4.158;2022-08-18T10:44:12;4.97;;;1.60;;
17648;SDS011;8943;51.110;-4.158;2022-08-18T10:46:54;3.53;;;1.43;;
17648;SDS011;8943;51.110;-4.158;2022-08-18T10:49:25;2.63;;;1.23;;
17648;SDS011;8943;51.110;-4.158;2022-08-18T10:52:01;2.27;;;1.20;;
17648;SDS011;8943;51.110;-4.158;2022-08-18T10:54:56;5.33;;;1.20;;
17648;SDS011;8943;51.110;-4.158;2022-08-18T10:57:39;2.63;;;1.10;;
17648;SDS011;8943;51.110;-4.158;2022-08-18T11:00:22;4.03;;;0.80;;
17648;SDS011;8943;51.110;-4.158;2022-08-18T11:03:07;2.60;;;0.90;;
17648;SDS011;8943;51.110;-4.158;2022-08-18T11:06:07;4.23;;;1.47;;
17648;SDS011;8943;51.110;-4.158;2022-08-18T11:09:00;2.27;;;1.00;;
17648;SDS011;8943;51.110;-4.158;2022-08-18T11:11:30;2.60;;;1.20;;
17648;SDS011;8943;51.110;-4.158;2022-08-18T11:14:24;1.90;;;0.80;;
17648;SDS011;8943;51.110;-4.158;2022-08-18T11:17:10;1.40;;;1.20;;
17648;SDS011;8943;51.110;-4.158;2022-08-18T11:19:46;7.40;;;1.20;;
17648;SDS011;8943;51.110;-4.158;2022-08-18T11:22:20;2.17;;;0.80;;
17648;SDS011;8943;51.110;-4.158;2022-08-18T11:24:58;2.77;;;0.90;;
17648;SDS011;8943;51.110;-4.158;2022-08-18T11:27:29;1.90;;;0.60;;
17648;SDS011;8943;51.110;-4.158;2022-08-18T11:30:03;2.43;;;0.80;;
17648;SDS011;8943;51.110;-4.158;2022-08-18T11:32:33;1.80;;;0.73;;
17648;SDS011;8943;51.110;-4.158;2022-08-18T11:35:10;0.70;;;0.60;;
17648;SDS011;8943;51.110;-4.158;2022-08-18T11:37:44;2.63;;;1.00;;
17648;SDS011;8943;51.110;-4.158;2022-08-18T11:40:20;1.30;;;0.60;;
17648;SDS011;8943;51.110;-4.158;2022-08-18T11:43:15;1.87;;;0.63;;
17648;SDS011;8943;51.110;-4.158;2022-08-18T11:45:54;0.67;;;0.60;;
17648;SDS011;8943;51.110;-4.158;2022-08-18T11:48:31;0.87;;;0.50;;
17648;SDS011;8943;51.110;-4.158;2022-08-18T11:51:19;1.23;;;0.70;;
17648;SDS011;8943;51.110;-4.158;2022-08-18T11:53:54;2.90;;;0.60;;
17648;SDS011;8943;51.110;-4.158;2022-08-18T11:56:26;1.00;;;0.60;;
17648;SDS011;8943;51.110;-4.158;2022-08-18T11:59:02;0.53;;;0.53;;
17648;SDS011;8943;51.110;-4.158;2022-08-18T12:01:36;1.23;;;0.80;;
17648;SDS011;8943;51.110;-4.158;2022-08-18T12:04:20;4.03;;;1.57;;
17648;SDS011;8943;51.110;-4.158;2022-08-18T12:06:55;1.67;;;0.90;;
17648;SDS011;8943;51.110;-4.158;2022-08-18T12:09:37;2.70;;;0.80;;
17648;SDS011;8943;51.110;-4.158;2022-08-18T12:12:29;1.40;;;0.80;;
17648;SDS011;8943;51.110;-4.158;2022-08-18T12:15:03;1.30;;;0.70;;
17648;SDS011;8943;51.110;-4.158;2022-08-18T12:17:56;5.60;;;1.00;;
17648;SDS011;8943;51.110;-4.158;2022-08-18T12:20:25;1.73;;;0.83;;
17648;SDS011;8943;51.110;-4.158;2022-08-18T12:22:55;2.67;;;1.10;;
17648;SDS011;8943;51.110;-4.158;2022-08-18T12:25:23;2.43;;;1.00;;
17648;SDS011;8943;51.110;-4.158;2022-08-18T12:27:53;2.37;;;1.00;;
17648;SDS011;8943;51.110;-4.158;2022-08-18T12:30:21;3.73;;;1.00;;
17648;SDS011;8943;51.110;-4.158;2022-08-18T12:32:51;3.97;;;1.30;;
17648;SDS011;8943;51.110;-4.158;2022-08-18T12:35:40;1.80;;;1.07;;
17648;SDS011;8943;51.110;-4.158;2022-08-18T12:38:10;2.37;;;1.20;;
17648;SDS011;8943;51.110;-4.158;2022-08-18T12:40:43;1.13;;;0.63;;
17648;SDS011;8943;51.110;-4.158;2022-08-18T12:43:11;2.33;;;1.03;;
17648;SDS011;8943;51.110;-4.158;2022-08-18T12:45:40;1.80;;;1.00;;
17648;SDS011;8943;51.110;-4.158;2022-08-18T12:48:08;1.77;;;0.93;;
17648;SDS011;8943;51.110;-4.158;2022-08-18T12:50:37;1.37;;;1.07;;
17648;SDS011;8943;51.110;-4.158;2022-08-18T12:53:25;2.50;;;1.17;;
17648;SDS011;8943;51.110;-4.158;2022-08-18T12:56:16;2.30;;;0.87;;
17648;SDS011;8943;51.110;-4.158;2022-08-18T12:58:47;2.23;;;0.80;;
17648;SDS011;8943;51.110;-4.158;2022-08-18T13:01:15;1.40;;;0.80;;
17648;SDS011;8943;51.110;-4.158;2022-08-18T13:03:44;1.77;;;1.37;;
17648;SDS011;8943;51.110;-4.158;2022-08-18T13:06:26;1.53;;;0.80;;
17648;SDS011;8943;51.110;-4.158;2022-08-18T13:08:57;1.90;;;0.87;;
17648;SDS011;8943;51.110;-4.158;2022-08-18T13:11:25;2.60;;;0.90;;
17648;SDS011;8943;51.110;-4.158;2022-08-18T13:13:54;1.20;;;0.83;;
17648;SDS011;8943;51.110;-4.158;2022-08-18T13:16:23;3.83;;;0.90;;
17648;SDS011;8943;51.110;-4.158;2022-08-18T13:19:20;1.13;;;0.73;;
17648;SDS011;8943;51.110;-4.158;2022-08-18T13:21:49;0.83;;;0.47;;
17648;SDS011;8943;51.110;-4.158;2022-08-18T13:24:19;1.83;;;0.70;;
17648;SDS011;8943;51.110;-4.158;2022-08-18T13:26:47;3.37;;;0.63;;
17648;SDS011;8943;51.110;-4.158;2022-08-18T13:29:17;1.13;;;0.60;;
17648;SDS011;8943;51.110;-4.158;2022-08-18T13:31:46;2.73;;;0.97;;
17648;SDS011;8943;51.110;-4.158;2022-08-18T13:34:22;2.53;;;0.87;;
17648;SDS011;8943;51.110;-4.158;2022-08-18T13:36:55;2.30;;;0.80;;
17648;SDS011;8943;51.110;-4.158;2022-08-18T13:39:25;2.20;;;0.60;;
17648;SDS011;8943;51.110;-4.158;2022-08-18T13:41:59;4.03;;;0.90;;
17648;SDS011;8943;51.110;-4.158;2022-08-18T13:44:49;2.00;;;0.67;;
17648;SDS011;8943;51.110;-4.158;2022-08-18T13:47:18;0.60;;;0.60;;
17648;SDS011;8943;51.110;-4.158;2022-08-18T13:49:48;2.83;;;1.00;;
17648;SDS011;8943;51.110;-4.158;2022-08-18T13:52:24;2.23;;;0.90;;
17648;SDS011;8943;51.110;-4.158;2022-08-18T13:55:03;2.13;;;0.93;;
17648;SDS011;8943;51.110;-4.158;2022-08-18T13:57:38;2.77;;;0.73;;
17648;SDS011;8943;51.110;-4.158;2022-08-18T14:00:08;7.10;;;0.63;;
17648;SDS011;8943;51.110;-4.158;2022-08-18T14:02:53;2.73;;;0.70;;
17648;SDS011;8943;51.110;-4.158;2022-08-18T14:05:24;1.17;;;0.53;;
17648;SDS011;8943;51.110;-4.158;2022-08-18T14:08:13;2.57;;;0.40;;
17648;SDS011;8943;51.110;-4.158;2022-08-18T14:10:48;1.90;;;0.60;;
17648;SDS011;8943;51.110;-4.158;2022-08-18T14:13:20;2.40;;;0.70;;
17648;SDS011;8943;51.110;-4.158;2022-08-18T14:15:52;1.60;;;0.30;;
17648;SDS011;8943;51.110;-4.158;2022-08-18T14:18:23;1.97;;;0.50;;
17648;SDS011;8943;51.110;-4.158;2022-08-18T14:20:55;0.70;;;0.40;;
17648;SDS011;8943;51.110;-4.158;2022-08-18T14:23:41;1.27;;;0.40;;
17648;SDS011;8943;51.110;-4.158;2022-08-18T14:26:28;2.13;;;0.50;;
17648;SDS011;8943;51.110;-4.158;2022-08-18T14:29:15;0.20;;;0.20;;
17648;SDS011;8943;51.110;-4.158;2022-08-18T14:32:05;2.70;;;0.40;;
17648;SDS011;8943;51.110;-4.158;2022-08-18T14:34:37;0.73;;;0.30;;
17648;SDS011;8943;51.110;-4.158;2022-08-18T14:37:16;1.10;;;0.53;;
17648;SDS011;8943;51.110;-4.158;2022-08-18T14:39:45;3.30;;;0.60;;
17648;SDS011;8943;51.110;-4.158;2022-08-18T14:42:18;1.77;;;0.20;;
17648;SDS011;8943;51.110;-4.158;2022-08-18T14:45:07;0.60;;;0.20;;
17648;SDS011;8943;51.110;-4.158;2022-08-18T14:47:53;2.67;;;0.60;;
17648;SDS011;8943;51.110;-4.158;2022-08-18T14:50:23;1.47;;;0.40;;
17648;SDS011;8943;51.110;-4.158;2022-08-18T14:52:52;0.63;;;0.37;;
17648;SDS011;8943;51.110;-4.158;2022-08-18T14:55:20;0.80;;;0.23;;
17648;SDS011;8943;51.110;-4.158;2022-08-18T14:57:51;0.40;;;0.40;;
17648;SDS011;8943;51.110;-4.158;2022-08-18T15:00:19;2.43;;;0.30;;
17648;SDS011;8943;51.110;-4.158;2022-08-18T15:02:49;1.83;;;0.50;;
17648;SDS011;8943;51.110;-4.158;2022-08-18T15:05:18;2.83;;;0.50;;
17648;SDS011;8943;51.110;-4.158;2022-08-18T15:07:50;0.60;;;0.57;;
17648;SDS011;8943;51.110;-4.158;2022-08-18T15:10:19;2.57;;;0.77;;
17648;SDS011;8943;51.110;-4.158;2022-08-18T15:12:54;1.20;;;0.60;;
17648;SDS011;8943;51.110;-4.158;2022-08-18T15:15:25;1.73;;;0.60;;
17648;SDS011;8943;51.110;-4.158;2022-08-18T15:18:17;3.50;;;0.90;;
17648;SDS011;8943;51.110;-4.158;2022-08-18T15:20:48;1.03;;;0.90;;
17648;SDS011;8943;51.110;-4.158;2022-08-18T15:23:44;1.87;;;0.90;;
17648;SDS011;8943;51.110;-4.158;2022-08-18T15:26:44;1.80;;;0.80;;
17648;SDS011;8943;51.110;-4.158;2022-08-18T15:29:24;2.40;;;1.20;;
17648;SDS011;8943;51.110;-4.158;2022-08-18T15:31:54;2.13;;;1.10;;
17648;SDS011;8943;51.110;-4.158;2022-08-18T15:34:30;2.63;;;1.13;;
17648;SDS011;8943;51.110;-4.158;2022-08-18T15:37:12;1.83;;;1.40;;
17648;SDS011;8943;51.110;-4.158;2022-08-18T15:39:45;2.70;;;1.40;;
17648;SDS011;8943;51.110;-4.158;2022-08-18T15:42:21;4.03;;;1.63;;
17648;SDS011;8943;51.110;-4.158;2022-08-18T15:44:51;2.97;;;1.47;;
17648;SDS011;8943;51.110;-4.158;2022-08-18T15:47:20;5.33;;;1.30;;
17648;SDS011;8943;51.110;-4.158;2022-08-18T15:49:50;4.03;;;1.83;;
17648;SDS011;8943;51.110;-4.158;2022-08-18T15:52:20;5.47;;;1.70;;
17648;SDS011;8943;51.110;-4.158;2022-08-18T15:54:51;3.30;;;1.77;;
17648;SDS011;8943;51.110;-4.158;2022-08-18T15:57:23;4.00;;;1.77;;
17648;SDS011;8943;51.110;-4.158;2022-08-18T16:00:07;3.30;;;1.80;;
17648;SDS011;8943;51.110;-4.158;2022-08-18T16:02:38;4.57;;;1.83;;
17648;SDS011;8943;51.110;-4.158;2022-08-18T16:05:14;2.60;;;1.60;;
17648;SDS011;8943;51.110;-4.158;2022-08-18T16:07:43;5.80;;;2.30;;
17648;SDS011;8943;51.110;-4.158;2022-08-18T16:10:13;4.93;;;2.27;;